createdAt,value
2019-04-10T00:00:30.647Z,8.60
2019-04-10T00:02:59.295Z,9.80
2019-04-10T00:05:27.848Z,8.67
2019-04-10T00:07:56.387Z,10.70
2019-04-10T00:10:25.242Z,11.90
2019-04-10T00:12:54.146Z,7.57
2019-04-10T00:15:24.246Z,8.67
2019-04-10T00:17:53.548Z,11.90
2019-04-10T00:20:22.551Z,6.50
2019-04-10T00:22:51.072Z,8.10
2019-04-10T00:25:19.761Z,8.83
2019-04-10T00:27:48.432Z,6.73
2019-04-10T00:30:17.125Z,6.97
2019-04-10T00:32:48.087Z,6.23
2019-04-10T00:35:19.210Z,6.50
2019-04-10T00:37:47.727Z,9.47
2019-04-10T00:40:17.318Z,6.63
2019-04-10T00:42:45.857Z,7.50
2019-04-10T00:45:15.426Z,7.80
2019-04-10T00:47:44.083Z,6.60
2019-04-10T00:50:12.719Z,6.40
2019-04-10T00:52:41.249Z,7.43
2019-04-10T00:55:09.949Z,7.30
2019-04-10T00:57:39.303Z,6.70
2019-04-10T01:00:08.623Z,7.97
2019-04-10T01:02:37.092Z,7.00
2019-04-10T01:05:06.947Z,6.93
2019-04-10T01:07:39.814Z,7.17
2019-04-10T01:10:10.128Z,5.67
2019-04-10T01:12:38.796Z,6.87
2019-04-10T01:15:07.811Z,5.73
2019-04-10T01:17:36.409Z,6.70
2019-04-10T01:20:07.121Z,6.60
2019-04-10T01:22:35.719Z,5.77
2019-04-10T01:25:06.159Z,5.10
2019-04-10T01:27:34.810Z,6.10
2019-04-10T01:30:04.301Z,4.63
2019-04-10T01:32:32.904Z,9.80
2019-04-10T01:35:02.471Z,5.17
2019-04-10T01:37:31.079Z,7.20
2019-04-10T01:39:59.641Z,8.10
2019-04-10T01:42:28.435Z,5.67
2019-04-10T01:44:57.304Z,4.90
2019-04-10T01:47:26.856Z,5.10
2019-04-10T01:49:55.787Z,5.67
2019-04-10T01:52:24.826Z,6.23
2019-04-10T01:54:53.564Z,4.33
2019-04-10T01:57:22.090Z,4.60
2019-04-10T01:59:50.727Z,5.23
2019-04-10T02:02:27.361Z,4.83
2019-04-10T02:04:56.771Z,4.93
2019-04-10T02:07:26.401Z,8.90
2019-04-10T02:09:56.043Z,5.13
2019-04-10T02:12:24.783Z,5.60
2019-04-10T02:14:54.307Z,6.13
2019-04-10T02:17:22.960Z,6.47
2019-04-10T02:19:51.511Z,5.80
2019-04-10T02:22:20.424Z,5.33
2019-04-10T02:24:49.386Z,6.60
2019-04-10T02:27:18.323Z,6.50
2019-04-10T02:29:48.079Z,7.67
2019-04-10T02:32:16.791Z,8.30
2019-04-10T02:34:46.816Z,7.97
2019-04-10T02:37:17.001Z,7.07
2019-04-10T02:39:48.506Z,8.87
2019-04-10T02:42:16.405Z,7.00
2019-04-10T02:44:45.883Z,9.00
2019-04-10T02:47:14.766Z,8.73
2019-04-10T02:49:44.461Z,11.33
2019-04-10T02:52:14.668Z,6.60
2019-04-10T02:54:43.642Z,9.90
2019-04-10T02:57:13.551Z,7.20
2019-04-10T02:59:43.171Z,10.97
2019-04-10T03:02:11.879Z,6.70
2019-04-10T03:04:40.643Z,5.23
2019-04-10T03:07:09.533Z,6.90
2019-04-10T03:09:53.634Z,8.27
2019-04-10T03:12:10.307Z,7.87
2019-04-10T03:14:39.319Z,9.30
2019-04-10T03:17:10.108Z,7.73
2019-04-10T03:19:38.788Z,6.27
2019-04-10T03:22:08.904Z,8.00
2019-04-10T03:24:38.156Z,7.93
2019-04-10T03:27:06.931Z,6.20
2019-04-10T03:29:35.905Z,5.57
2019-04-10T03:32:23.244Z,8.87
2019-04-10T03:34:54.903Z,5.50
2019-04-10T03:37:24.374Z,7.87
2019-04-10T03:39:53.259Z,10.27
2019-04-10T03:42:22.980Z,6.43
2019-04-10T03:44:51.777Z,9.90
2019-04-10T03:47:20.438Z,7.70
2019-04-10T03:49:49.849Z,6.47
2019-04-10T03:52:19.028Z,7.30
2019-04-10T03:54:48.165Z,7.10
2019-04-10T03:57:16.877Z,6.90
2019-04-10T03:59:45.491Z,11.97
2019-04-10T04:02:14.141Z,10.77
2019-04-10T04:04:43.869Z,8.40
2019-04-10T04:07:13.403Z,10.30
2019-04-10T04:09:42.000Z,6.20
2019-04-10T04:12:10.586Z,9.90
2019-04-10T04:14:39.080Z,8.27
2019-04-10T04:17:08.112Z,8.87
2019-04-10T04:19:37.903Z,9.47
2019-04-10T04:22:06.568Z,7.97
2019-04-10T04:24:35.734Z,10.70
2019-04-10T04:27:04.828Z,10.23
2019-04-10T04:29:34.433Z,7.07
2019-04-10T04:32:03.170Z,10.00
2019-04-10T04:34:31.699Z,8.47
2019-04-10T04:37:00.443Z,6.17
2019-04-10T04:39:30.023Z,7.40
2019-04-10T04:41:59.172Z,8.20
2019-04-10T04:44:27.778Z,6.87
2019-04-10T04:46:57.025Z,6.80
2019-04-10T04:49:26.404Z,9.13
2019-04-10T04:51:55.238Z,9.03
2019-04-10T04:54:23.772Z,9.40
2019-04-10T04:56:52.531Z,11.87
2019-04-10T04:59:21.611Z,10.40
2019-04-10T05:01:50.584Z,10.43
2019-04-10T05:04:19.372Z,9.50
2019-04-10T05:06:48.114Z,11.60
2019-04-10T05:09:27.375Z,8.10
2019-04-10T05:11:46.957Z,9.93
2019-04-10T05:14:15.456Z,8.50
2019-04-10T05:16:44.092Z,10.50
2019-04-10T05:19:12.631Z,9.23
2019-04-10T05:21:41.507Z,10.73
2019-04-10T05:24:10.119Z,8.97
2019-04-10T05:26:42.825Z,8.67
2019-04-10T05:29:11.505Z,8.67
2019-04-10T05:31:40.527Z,10.00
2019-04-10T05:34:09.358Z,9.00
2019-04-10T05:36:37.958Z,8.73
2019-04-10T05:39:08.509Z,10.87
2019-04-10T05:41:37.837Z,11.23
2019-04-10T05:44:07.440Z,9.90
2019-04-10T05:46:36.769Z,11.50
2019-04-10T05:49:06.644Z,12.20
2019-04-10T05:51:35.379Z,14.07
2019-04-10T05:54:04.010Z,9.17
2019-04-10T05:56:32.575Z,7.90
2019-04-10T05:59:01.113Z,13.20
2019-04-10T06:01:35.304Z,8.03
2019-04-10T06:04:00.873Z,7.60
2019-04-10T06:06:30.549Z,8.70
2019-04-10T06:09:00.366Z,7.50
2019-04-10T06:11:28.970Z,12.40
2019-04-10T06:13:57.517Z,8.57
2019-04-10T06:16:26.141Z,9.20
2019-04-10T06:18:55.561Z,7.10
2019-04-10T06:21:25.099Z,10.50
2019-04-10T06:23:53.957Z,8.67
2019-04-10T06:26:23.677Z,10.63
2019-04-10T06:28:52.659Z,10.63
2019-04-10T06:31:21.361Z,11.83
2019-04-10T06:33:50.577Z,10.40
2019-04-10T06:36:19.579Z,9.60
2019-04-10T06:38:48.235Z,12.13
2019-04-10T06:41:17.706Z,9.30
2019-04-10T06:43:47.481Z,11.03
2019-04-10T06:46:16.742Z,8.13
2019-04-10T06:48:45.380Z,7.33
2019-04-10T06:51:14.022Z,7.90
2019-04-10T06:53:42.563Z,6.43
2019-04-10T06:56:11.353Z,9.67
2019-04-10T06:58:41.027Z,5.17
2019-04-10T07:01:10.422Z,5.20
2019-04-10T07:03:51.820Z,6.10
2019-04-10T07:06:15.642Z,5.40
2019-04-10T07:08:40.294Z,5.43
2019-04-10T07:11:11.739Z,5.50
2019-04-10T07:13:40.461Z,6.37
2019-04-10T07:16:10.258Z,6.27
2019-04-10T07:18:41.135Z,9.27
2019-04-10T07:21:10.620Z,5.77
2019-04-10T07:23:40.738Z,6.50
2019-04-10T07:26:10.124Z,7.93
2019-04-10T07:28:41.545Z,7.33
2019-04-10T07:31:10.446Z,6.30
2019-04-10T07:33:40.476Z,7.87
2019-04-10T07:36:12.460Z,5.80
2019-04-10T07:38:39.360Z,8.20
2019-04-10T07:41:14.328Z,6.93
2019-04-10T07:43:38.670Z,9.60
2019-04-10T07:46:07.388Z,8.00
2019-04-10T07:48:35.933Z,6.37
2019-04-10T07:51:04.892Z,8.80
2019-04-10T07:53:33.500Z,10.37
2019-04-10T07:56:06.831Z,9.70
2019-04-10T07:58:32.378Z,5.90
2019-04-10T08:01:01.147Z,7.80
2019-04-10T08:03:29.701Z,10.47
2019-04-10T08:05:58.372Z,8.80
2019-04-10T08:08:27.827Z,10.53
2019-04-10T08:10:57.416Z,8.00
2019-04-10T08:13:26.789Z,9.73
2019-04-10T08:15:56.339Z,8.67
2019-04-10T08:18:25.411Z,10.10
2019-04-10T08:20:55.140Z,8.00
2019-04-10T08:23:23.971Z,9.20
2019-04-10T08:25:53.648Z,9.20
2019-04-10T08:28:22.304Z,8.37
2019-04-10T08:30:50.951Z,8.07
2019-04-10T08:33:19.610Z,6.73
2019-04-10T08:35:48.169Z,8.83
2019-04-10T08:38:17.266Z,6.80
2019-04-10T08:40:45.953Z,6.80
2019-04-10T08:43:14.534Z,6.60
2019-04-10T08:45:48.486Z,5.50
2019-04-10T08:48:13.475Z,6.47
2019-04-10T08:50:42.001Z,6.03
2019-04-10T08:53:11.617Z,5.57
2019-04-10T08:55:40.205Z,3.40
2019-04-10T08:58:08.767Z,13.33
2019-04-10T09:00:37.570Z,3.70
2019-04-10T09:03:06.666Z,5.87
2019-04-10T09:05:35.487Z,4.20
2019-04-10T09:08:04.496Z,5.20
2019-04-10T09:10:34.355Z,9.40
2019-04-10T09:13:04.178Z,4.23
2019-04-10T09:15:34.036Z,3.30
2019-04-10T09:18:03.952Z,3.60
2019-04-10T09:20:33.059Z,6.50
2019-04-10T09:23:33.098Z,6.30
2019-04-10T09:25:31.896Z,4.50
2019-04-10T09:28:00.455Z,5.33
2019-04-10T09:30:29.232Z,4.90
2019-04-10T09:32:58.965Z,3.90
2019-04-10T09:35:28.766Z,3.80
2019-04-10T09:37:57.392Z,4.00
2019-04-10T09:40:25.931Z,3.90
2019-04-10T09:42:55.480Z,5.10
2019-04-10T09:45:25.169Z,4.83
2019-04-10T09:47:54.187Z,6.57
2019-04-10T09:50:23.433Z,4.60
2019-04-10T09:52:53.153Z,4.27
2019-04-10T09:55:22.231Z,5.20
2019-04-10T09:57:51.759Z,4.33
2019-04-10T10:00:21.349Z,4.13
2019-04-10T10:02:50.731Z,5.93
2019-04-10T10:05:20.269Z,4.30
2019-04-10T10:07:48.844Z,7.73
2019-04-10T10:10:17.407Z,3.70
2019-04-10T10:12:46.088Z,4.47
2019-04-10T10:15:15.091Z,4.53
2019-04-10T10:17:44.500Z,4.67
2019-04-10T10:20:13.514Z,3.67
2019-04-10T10:22:42.142Z,4.50
2019-04-10T10:25:11.164Z,4.13
2019-04-10T10:27:40.793Z,4.93
2019-04-10T10:30:11.497Z,5.60
2019-04-10T10:32:42.108Z,4.17
2019-04-10T10:35:11.781Z,3.90
2019-04-10T10:37:40.960Z,5.43
2019-04-10T10:40:10.292Z,4.13
2019-04-10T10:42:40.234Z,5.40
2019-04-10T10:45:10.478Z,6.27
2019-04-10T10:47:40.436Z,5.60
2019-04-10T10:50:10.385Z,4.57
2019-04-10T10:52:39.807Z,6.97
2019-04-10T10:55:09.694Z,4.70
2019-04-10T10:57:39.649Z,4.13
2019-04-10T11:00:11.942Z,5.10
2019-04-10T11:02:39.752Z,5.03
2019-04-10T11:05:08.804Z,5.47
2019-04-10T11:07:38.849Z,5.27
2019-04-10T11:10:08.483Z,6.20
2019-04-10T11:12:38.395Z,7.33
2019-04-10T11:15:07.823Z,8.50
2019-04-10T11:17:36.495Z,8.70
2019-04-10T11:20:10.143Z,5.13
2019-04-10T11:22:39.944Z,7.33
2019-04-10T11:25:09.837Z,7.90
2019-04-10T11:27:39.324Z,8.93
2019-04-10T11:30:10.055Z,7.70
2019-04-10T11:32:38.758Z,19.17
2019-04-10T11:35:08.082Z,9.27
2019-04-10T11:40:08.773Z,11.13
2019-04-10T11:42:39.774Z,9.90
2019-04-10T11:45:10.545Z,12.60
2019-04-10T11:47:39.794Z,9.27
2019-04-10T11:50:13.180Z,12.43
2019-04-10T11:52:45.156Z,9.23
2019-04-10T11:55:13.720Z,10.87
2019-04-10T11:57:41.948Z,10.70
2019-04-10T12:00:16.982Z,10.50
2019-04-10T12:05:18.597Z,10.47
2019-04-10T12:08:20.997Z,13.43
2019-04-10T12:12:43.955Z,10.80
2019-04-10T12:15:12.574Z,14.50
2019-04-10T12:17:42.935Z,13.03
2019-04-10T12:20:11.613Z,11.77
2019-04-10T12:22:40.705Z,8.70
2019-04-10T12:25:10.206Z,13.17
2019-04-10T12:27:39.056Z,13.00
2019-04-10T12:30:11.133Z,10.13
2019-04-10T12:32:40.980Z,10.23
2019-04-10T12:35:10.949Z,11.37
2019-04-10T12:37:39.532Z,12.40
2019-04-10T12:40:09.538Z,18.43
2019-04-10T12:42:38.704Z,20.53
2019-04-10T12:45:08.633Z,21.27
2019-04-10T12:47:37.745Z,28.03
2019-04-10T12:50:09.406Z,36.90
2019-04-10T12:52:38.761Z,36.77
2019-04-10T12:55:08.153Z,34.53
2019-04-10T12:57:37.281Z,37.23
2019-04-10T13:00:11.717Z,39.80
2019-04-10T13:02:40.770Z,44.23
2019-04-10T13:05:11.300Z,40.87
2019-04-10T13:07:40.075Z,45.10
2019-04-10T13:10:09.032Z,53.43
2019-04-10T13:12:37.754Z,58.27
2019-04-10T13:15:08.411Z,58.57
2019-04-10T13:17:37.051Z,63.17
2019-04-10T13:20:11.152Z,68.37
2019-04-10T13:22:40.215Z,83.63
2019-04-10T13:25:10.294Z,78.83
2019-04-10T13:27:39.176Z,76.30
2019-04-10T13:30:12.875Z,82.33
2019-04-10T13:32:40.782Z,85.07
2019-04-10T13:35:10.315Z,75.83
2019-04-10T13:37:39.103Z,67.83
2019-04-10T13:40:08.282Z,74.70
2019-04-10T13:42:37.279Z,75.90
2019-04-10T13:45:07.983Z,83.60
2019-04-10T13:47:36.647Z,78.83
2019-04-10T13:50:08.680Z,88.67
2019-04-10T13:52:39.064Z,83.17
2019-04-10T13:55:10.073Z,83.83
2019-04-10T13:57:39.228Z,83.03
2019-04-10T14:00:11.385Z,82.43
2019-04-10T14:02:40.082Z,96.23
2019-04-10T14:05:11.673Z,100.10
2019-04-10T14:07:40.521Z,93.27
2019-04-10T14:10:10.525Z,104.20
2019-04-10T14:12:39.227Z,97.20
2019-04-10T14:15:08.299Z,94.30
2019-04-10T14:17:37.638Z,94.30
2019-04-10T14:20:06.938Z,100.83
2019-04-10T14:22:37.955Z,98.87
2019-04-10T14:25:09.596Z,91.43
2019-04-10T14:27:38.530Z,93.20
2019-04-10T14:30:11.329Z,104.70
2019-04-10T14:32:40.161Z,92.33
2019-04-10T14:35:09.904Z,101.13
2019-04-10T14:37:38.649Z,98.87
2019-04-10T14:40:09.399Z,102.67
2019-04-10T14:42:38.397Z,97.33
2019-04-10T14:45:08.886Z,96.13
2019-04-10T14:47:37.670Z,96.33
2019-04-10T14:50:07.532Z,104.97
2019-04-10T14:52:37.178Z,98.67
2019-04-10T14:55:06.380Z,97.27
2019-04-10T14:57:35.070Z,103.93
2019-04-10T15:00:10.677Z,95.97
2019-04-10T15:02:40.114Z,103.40
2019-04-10T15:05:10.048Z,95.97
2019-04-10T15:07:39.438Z,99.40
2019-04-10T15:10:09.066Z,100.53
2019-04-10T15:12:37.711Z,97.13
2019-04-10T15:15:06.488Z,102.73
2019-04-10T15:17:35.057Z,99.47
2019-04-10T15:20:04.921Z,112.87
2019-04-10T15:22:33.844Z,106.50
2019-04-10T15:25:02.515Z,120.47
2019-04-10T15:27:31.043Z,114.07
2019-04-10T15:29:59.675Z,116.27
2019-04-10T15:32:29.353Z,112.77
2019-04-10T15:34:58.029Z,108.93
2019-04-10T15:37:26.614Z,108.67
2019-04-10T15:39:55.154Z,113.00
2019-04-10T15:42:23.910Z,114.30
2019-04-10T15:44:52.490Z,115.03
2019-04-10T15:47:23.110Z,110.77
2019-04-10T15:49:51.733Z,108.00
2019-04-10T15:52:20.418Z,109.10
2019-04-10T15:54:50.029Z,107.50
2019-04-10T15:57:19.526Z,107.57
2019-04-10T15:59:48.357Z,94.50
2019-04-10T16:02:17.064Z,92.17
2019-04-10T16:04:45.745Z,91.97
2019-04-10T16:07:14.935Z,105.63
2019-04-10T16:09:49.955Z,101.03
2019-04-10T16:12:16.569Z,96.00
2019-04-10T16:14:46.464Z,94.87
2019-04-10T16:17:29.413Z,97.37
2019-04-10T16:20:00.135Z,89.37
2019-04-10T16:22:31.201Z,94.43
2019-04-10T16:25:01.532Z,94.37
2019-04-10T16:27:30.672Z,92.33
2019-04-10T16:30:02.051Z,94.37
2019-04-10T16:32:29.713Z,95.33
2019-04-10T16:34:58.906Z,101.93
2019-04-10T16:37:27.530Z,101.83
2019-04-10T16:40:02.713Z,105.50
2019-04-10T16:42:26.550Z,104.00
2019-04-10T16:44:55.424Z,106.90
2019-04-10T16:47:24.042Z,119.97
2019-04-10T16:49:53.134Z,106.50
2019-04-10T16:52:23.021Z,105.47
2019-04-10T16:54:51.614Z,111.77
2019-04-10T16:57:21.180Z,105.00
2019-04-10T16:59:50.678Z,104.77
2019-04-10T17:02:24.250Z,99.53
2019-04-10T17:04:52.853Z,107.90
2019-04-10T17:07:21.470Z,107.53
2019-04-10T17:09:51.433Z,99.23
2019-04-10T17:12:20.208Z,100.90
2019-04-10T17:14:48.871Z,114.77
2019-04-10T17:17:20.235Z,109.07
2019-04-10T17:19:55.213Z,111.17
2019-04-10T17:22:30.795Z,101.20
2019-04-10T17:24:49.482Z,109.67
2019-04-10T17:27:18.124Z,101.13
2019-04-10T17:29:48.017Z,114.87
2019-04-10T17:32:17.210Z,113.83
2019-04-10T17:34:47.114Z,105.20
2019-04-10T17:37:15.887Z,103.97
2019-04-10T17:39:44.434Z,97.70
2019-04-10T17:42:14.423Z,104.13
2019-04-10T17:44:43.106Z,103.70
2019-04-10T17:47:12.477Z,106.70
2019-04-10T17:49:41.412Z,109.37
2019-04-10T17:52:10.404Z,106.77
2019-04-10T17:54:39.088Z,106.53
2019-04-10T17:57:08.666Z,99.93
2019-04-10T17:59:38.489Z,95.80
2019-04-10T18:02:09.507Z,99.80
2019-04-10T18:04:38.302Z,107.73
2019-04-10T18:07:07.898Z,99.43
2019-04-10T18:09:36.904Z,105.67
2019-04-10T18:12:06.022Z,102.73
2019-04-10T18:14:37.850Z,112.00
2019-04-10T18:17:04.971Z,106.77
2019-04-10T18:19:34.393Z,102.13
2019-04-10T18:22:04.108Z,108.40
2019-04-10T18:24:33.244Z,109.13
2019-04-10T18:27:01.867Z,98.23
2019-04-10T18:29:30.925Z,104.80
2019-04-10T18:32:00.910Z,104.37
2019-04-10T18:34:30.184Z,104.77
2019-04-10T18:36:58.930Z,112.50
2019-04-10T18:39:27.641Z,103.67
2019-04-10T18:41:59.287Z,104.50
2019-04-10T18:44:26.472Z,108.73
2019-04-10T18:46:55.031Z,101.07
2019-04-10T18:49:23.579Z,103.77
2019-04-10T18:51:52.115Z,119.73
2019-04-10T18:54:20.767Z,104.23
2019-04-10T18:56:49.463Z,105.77
2019-04-10T18:59:36.477Z,106.37
2019-04-10T19:02:25.522Z,117.47
2019-04-10T19:04:55.813Z,114.47
2019-04-10T19:07:25.086Z,118.67
2019-04-10T19:09:54.655Z,106.43
2019-04-10T19:12:24.388Z,108.53
2019-04-10T19:14:54.130Z,106.50
2019-04-10T19:17:22.982Z,108.30
2019-04-10T19:19:52.435Z,111.07
2019-04-10T19:22:21.008Z,120.23
2019-04-10T19:24:50.273Z,111.67
2019-04-10T19:27:20.087Z,122.87
2019-04-10T19:29:48.796Z,115.30
2019-04-10T19:32:29.942Z,117.73
2019-04-10T19:34:58.973Z,114.73
2019-04-10T19:37:28.448Z,125.63
2019-04-10T19:39:57.067Z,117.10
2019-04-10T19:42:25.648Z,118.37
2019-04-10T19:44:55.230Z,106.57
2019-04-10T19:47:23.847Z,106.70
2019-04-10T19:49:53.016Z,115.77
2019-04-10T19:52:22.447Z,104.33
2019-04-10T19:54:51.311Z,106.10
2019-04-10T19:57:19.948Z,106.40
2019-04-10T19:59:48.494Z,109.53
2019-04-10T20:02:17.083Z,107.57
2019-04-10T20:04:45.616Z,114.73
2019-04-10T20:07:14.326Z,105.27
2019-04-10T20:09:42.881Z,103.30
2019-04-10T20:12:12.675Z,101.43
2019-04-10T20:14:41.286Z,115.27
2019-04-10T20:17:09.911Z,99.70
2019-04-10T20:19:38.463Z,110.10
2019-04-10T20:22:08.434Z,96.83
2019-04-10T20:24:37.199Z,104.67
2019-04-10T20:27:05.773Z,109.57
2019-04-10T20:29:35.049Z,102.27
2019-04-10T20:32:04.039Z,102.90
2019-04-10T20:34:33.623Z,99.47
2019-04-10T20:37:07.428Z,97.93
2019-04-10T20:39:33.532Z,108.83
2019-04-10T20:42:02.618Z,106.47
2019-04-10T20:44:32.502Z,118.63
2019-04-10T20:47:02.284Z,105.40
2019-04-10T20:49:31.191Z,95.57
2019-04-10T20:51:59.895Z,104.67
2019-04-10T20:54:28.694Z,111.57
2019-04-10T20:56:57.388Z,100.97
2019-04-10T20:59:26.533Z,105.50
2019-04-10T21:01:55.831Z,106.67
2019-04-10T21:04:25.436Z,106.23
2019-04-10T21:06:54.377Z,118.70
2019-04-10T21:09:23.593Z,106.57
2019-04-10T21:12:02.212Z,104.30
2019-04-10T21:14:23.331Z,119.20
2019-04-10T21:16:52.988Z,102.40
2019-04-10T21:19:21.841Z,114.07
2019-04-10T21:21:51.074Z,103.83
2019-04-10T21:24:20.898Z,111.07
2019-04-10T21:26:49.599Z,109.37
2019-04-10T21:29:36.409Z,106.77
2019-04-10T21:32:07.314Z,115.43
2019-04-10T21:34:37.618Z,111.33
2019-04-10T21:37:06.213Z,111.27
2019-04-10T21:39:34.702Z,118.83
2019-04-10T21:42:11.989Z,116.97
2019-04-10T21:44:33.458Z,121.70
2019-04-10T21:47:02.015Z,111.73
2019-04-10T21:49:30.571Z,112.87
2019-04-10T21:51:59.963Z,109.17
2019-04-10T21:54:29.292Z,106.30
2019-04-10T21:56:58.011Z,115.20
2019-04-10T21:59:26.868Z,121.77
2019-04-10T22:01:55.499Z,118.37
2019-04-10T22:04:25.124Z,109.90
2019-04-10T22:06:59.249Z,109.53
2019-04-10T22:09:30.529Z,110.33
2019-04-10T22:12:01.575Z,102.70
2019-04-10T22:14:30.286Z,109.90
2019-04-10T22:16:58.899Z,104.83
2019-04-10T22:19:28.447Z,113.37
2019-04-10T22:21:57.878Z,103.70
2019-04-10T22:24:26.552Z,113.97
2019-04-10T22:26:55.334Z,110.47
2019-04-10T22:29:23.951Z,109.77
2019-04-10T22:31:53.463Z,108.47
2019-04-10T22:34:22.401Z,116.57
2019-04-10T22:36:51.048Z,111.50
2019-04-10T22:39:19.776Z,109.17
2019-04-10T22:41:48.428Z,113.10
2019-04-10T22:44:17.613Z,112.43
2019-04-10T22:46:46.818Z,119.60
2019-04-10T22:49:15.578Z,114.40
2019-04-10T22:51:44.197Z,110.77
2019-04-10T22:54:13.151Z,107.80
2019-04-10T22:56:42.282Z,117.77
2019-04-10T22:59:10.874Z,123.73
2019-04-10T23:01:39.747Z,106.53
2019-04-10T23:04:08.577Z,116.03
2019-04-10T23:06:37.526Z,120.27
2019-04-10T23:09:09.180Z,112.67
2019-04-10T23:11:42.220Z,120.93
2019-04-10T23:14:08.712Z,113.63
2019-04-10T23:16:37.934Z,109.07
2019-04-10T23:19:06.693Z,122.53
2019-04-10T23:21:35.264Z,112.23
2019-04-10T23:24:05.407Z,114.13
2019-04-10T23:26:35.288Z,123.40
2019-04-10T23:29:04.245Z,123.13
2019-04-10T23:31:34.032Z,117.63
2019-04-10T23:34:02.633Z,133.67
2019-04-10T23:36:31.997Z,126.80
2019-04-10T23:39:02.276Z,111.70
2019-04-10T23:41:31.727Z,108.77
2019-04-10T23:44:00.374Z,121.43
2019-04-10T23:46:28.916Z,120.10
2019-04-10T23:48:57.486Z,108.90
2019-04-10T23:51:27.236Z,120.87
2019-04-10T23:53:56.915Z,110.70
2019-04-10T23:56:25.750Z,122.07
2019-04-10T23:58:54.305Z,121.83
